Time;durP1;ratioP1;P1;durP2;ratioP2;P2;SDS_P1;SDS_P2;PMS_P1;PMS_P2;Temp;Humidity;BMP_temperature;BMP_pressure;BME280_temperature;BME280_humidity;BME280_pressure;Samples;Min_cycle;Max_cycle;Signal;HPM_P1;HPM_P2
2021/04/25 00:02:16;;;;;;;8.77;3.70;;;7.70;57.50;;;;;;5063604;28;20045;-73
2021/04/25 00:04:42;;;;;;;8.48;3.83;;;7.70;57.50;;;;;;5067269;28;20662;-72
2021/04/25 00:07:07;;;;;;;7.55;3.30;;;7.60;57.60;;;;;;5067760;28;20036;-72
2021/04/25 00:09:33;;;;;;;8.65;3.40;;;7.60;57.60;;;;;;5060440;28;20400;-72
2021/04/25 00:12:00;;;;;;;8.18;3.88;;;7.60;57.50;;;;;;5061613;28;20044;-75
2021/04/25 00:14:25;;;;;;;8.77;3.30;;;7.50;58.00;;;;;;5068056;28;20037;-73
2021/04/25 00:16:51;;;;;;;10.80;4.13;;;7.40;58.20;;;;;;5064912;28;20033;-76
2021/04/25 00:19:17;;;;;;;10.55;3.88;;;7.40;58.30;;;;;;5069693;28;20360;-72
2021/04/25 00:21:42;;;;;;;13.10;3.85;;;7.40;58.20;;;;;;5066161;28;20029;-73
2021/04/25 00:24:08;;;;;;;8.45;3.90;;;7.30;58.40;;;;;;5065233;28;20392;-71
2021/04/25 00:26:34;;;;;;;7.68;3.63;;;7.40;58.40;;;;;;5061015;28;20032;-74
2021/04/25 00:28:59;;;;;;;7.82;3.80;;;7.30;58.60;;;;;;5064485;28;20053;-75
2021/04/25 00:31:25;;;;;;;9.25;4.05;;;7.30;58.80;;;;;;5060475;28;20845;-72
2021/04/25 00:33:51;;;;;;;9.13;4.07;;;7.20;58.90;;;;;;5063884;28;20480;-74
2021/04/25 00:36:16;;;;;;;10.98;4.43;;;7.20;59.00;;;;;;5058355;28;20067;-73
2021/04/25 00:38:43;;;;;;;9.43;4.03;;;7.10;59.20;;;;;;5062118;28;20076;-72
2021/04/25 00:41:09;;;;;;;8.75;3.83;;;7.10;59.20;;;;;;5064917;28;20056;-72
2021/04/25 00:43:35;;;;;;;8.20;4.38;;;7.10;59.20;;;;;;5066687;28;20041;-76
2021/04/25 00:46:01;;;;;;;9.77;4.32;;;7.10;59.20;;;;;;5065966;28;20406;-73
2021/04/25 00:48:27;;;;;;;10.27;3.72;;;7.10;59.30;;;;;;5061844;28;20123;-71
2021/04/25 00:50:53;;;;;;;9.00;3.88;;;7.00;59.40;;;;;;5061855;28;20109;-73
2021/04/25 00:53:21;;;;;;;9.43;4.00;;;7.00;59.50;;;;;;5047893;28;20033;-73
2021/04/25 00:55:47;;;;;;;8.70;3.65;;;7.00;59.50;;;;;;5045620;28;20472;-72
2021/04/25 00:58:13;;;;;;;10.20;4.25;;;6.90;59.80;;;;;;5046210;28;20539;-72
2021/04/25 01:00:39;;;;;;;10.23;4.22;;;6.90;60.10;;;;;;5048827;28;20033;-72
2021/04/25 01:03:04;;;;;;;8.52;3.92;;;6.90;60.10;;;;;;5048623;28;20052;-72
2021/04/25 01:05:30;;;;;;;11.73;4.70;;;6.80;60.40;;;;;;5049276;28;20064;-72
2021/04/25 01:07:56;;;;;;;12.77;4.97;;;6.80;60.40;;;;;;5053142;28;20048;-72
2021/04/25 01:10:22;;;;;;;11.30;4.70;;;6.80;60.60;;;;;;5045342;28;20105;-72
2021/04/25 01:12:47;;;;;;;10.77;4.78;;;6.70;61.10;;;;;;5048773;28;20036;-72
2021/04/25 01:15:15;;;;;;;9.63;4.55;;;6.60;61.30;;;;;;5055318;28;20044;-72
2021/04/25 01:17:48;;;;;;;12.43;6.03;;;6.60;61.60;;;;;;5044368;28;20068;-72
2021/04/25 01:20:17;;;;;;;10.30;5.13;;;6.60;61.90;;;;;;5061627;28;20041;-75
2021/04/25 01:22:43;;;;;;;11.73;4.90;;;6.60;62.00;;;;;;5067585;28;20033;-71
2021/04/25 01:25:11;;;;;;;10.05;4.82;;;6.50;62.20;;;;;;5065297;28;20124;-73
2021/04/25 01:27:37;;;;;;;11.93;5.43;;;6.50;62.40;;;;;;5059811;28;20032;-72
2021/04/25 01:30:05;;;;;;;13.63;5.57;;;6.50;62.50;;;;;;5065588;28;20041;-72
2021/04/25 01:32:32;;;;;;;14.77;5.72;;;6.50;62.50;;;;;;5075992;28;21205;-72
2021/04/25 01:34:57;;;;;;;9.73;5.15;;;6.40;62.70;;;;;;5069489;28;20028;-72
2021/04/25 01:37:23;;;;;;;12.73;5.68;;;6.50;62.60;;;;;;5060036;28;20095;-72
2021/04/25 01:39:52;;;;;;;10.57;6.00;;;6.50;62.90;;;;;;5044294;28;20120;-72
2021/04/25 01:42:18;;;;;;;13.68;6.18;;;6.40;63.10;;;;;;5041521;28;20052;-72
2021/04/25 01:44:44;;;;;;;12.25;5.78;;;6.30;63.40;;;;;;5045610;28;20049;-73
2021/04/25 01:47:09;;;;;;;11.43;6.20;;;6.30;63.40;;;;;;5046489;28;20075;-71
2021/04/25 01:49:35;;;;;;;12.23;6.32;;;6.30;63.50;;;;;;5059853;28;20049;-72
2021/04/25 01:52:02;;;;;;;13.40;6.40;;;6.20;63.90;;;;;;5065099;28;20040;-73
2021/04/25 01:54:27;;;;;;;13.40;6.35;;;6.30;63.90;;;;;;5064067;28;20411;-72
2021/04/25 01:56:53;;;;;;;13.73;6.40;;;6.20;64.20;;;;;;5062316;28;20041;-71
2021/04/25 01:59:19;;;;;;;12.80;6.57;;;6.10;64.50;;;;;;5056733;28;20045;-71
2021/04/25 02:01:44;;;;;;;13.80;6.38;;;6.20;64.60;;;;;;5064620;28;20139;-72
2021/04/25 02:04:11;;;;;;;14.35;6.88;;;6.10;64.70;;;;;;5065454;28;20056;-73
2021/04/25 02:06:41;;;;;;;14.45;6.85;;;6.10;65.10;;;;;;5066001;28;20033;-72
2021/04/25 02:09:07;;;;;;;12.75;7.03;;;6.10;65.30;;;;;;5066135;28;20040;-76
2021/04/25 02:11:33;;;;;;;14.57;7.20;;;6.00;65.50;;;;;;5065790;28;20532;-71
2021/04/25 02:13:59;;;;;;;13.65;6.40;;;6.00;65.60;;;;;;5056350;28;20036;-73
2021/04/25 02:16:24;;;;;;;14.30;7.38;;;6.00;65.70;;;;;;5043205;28;20037;-72
2021/04/25 02:18:50;;;;;;;12.48;6.28;;;6.00;65.90;;;;;;5046599;28;20057;-71
2021/04/25 02:21:16;;;;;;;17.48;7.72;;;5.90;66.10;;;;;;5046437;28;20044;-75
2021/04/25 02:23:41;;;;;;;15.45;7.35;;;5.90;66.10;;;;;;5046721;28;20048;-71
2021/04/25 02:26:07;;;;;;;16.85;7.85;;;5.90;66.30;;;;;;5047611;28;20097;-72
2021/04/25 02:28:33;;;;;;;15.68;7.90;;;5.90;66.50;;;;;;5041682;28;20477;-72
2021/04/25 02:30:58;;;;;;;15.45;7.47;;;5.80;66.50;;;;;;5061095;28;20047;-72
2021/04/25 02:33:24;;;;;;;16.45;7.63;;;5.80;66.80;;;;;;5052985;28;20037;-74
2021/04/25 02:35:50;;;;;;;13.43;7.20;;;5.80;67.00;;;;;;5045436;28;20037;-74
2021/04/25 02:38:15;;;;;;;15.73;8.20;;;5.80;67.10;;;;;;5043393;28;20033;-74
2021/04/25 02:40:41;;;;;;;13.68;7.47;;;5.80;67.10;;;;;;5051935;28;20166;-72
2021/04/25 02:43:07;;;;;;;16.55;7.72;;;5.70;67.40;;;;;;5054313;28;20028;-72
2021/04/25 02:45:33;;;;;;;15.68;8.02;;;5.70;67.80;;;;;;5056011;28;20048;-74
2021/04/25 02:48:02;;;;;;;14.20;8.07;;;5.60;68.00;;;;;;5043225;28;20513;-74
2021/04/25 02:50:31;;;;;;;16.02;8.30;;;5.70;68.10;;;;;;5064413;28;20955;-72
2021/04/25 02:52:57;;;;;;;14.63;8.38;;;5.60;68.20;;;;;;5064264;28;20040;-72
2021/04/25 02:55:23;;;;;;;14.98;8.43;;;5.60;68.50;;;;;;5064359;28;20111;-75
2021/04/25 02:57:48;;;;;;;18.08;8.55;;;5.60;68.60;;;;;;5065160;28;20116;-72
2021/04/25 03:00:20;;;;;;;13.75;7.60;;;5.50;69.00;;;;;;5065452;28;20169;-72
2021/04/25 03:02:46;;;;;;;15.15;8.25;;;5.50;69.20;;;;;;5056312;28;20033;-71
2021/04/25 03:05:12;;;;;;;15.20;7.88;;;5.50;69.40;;;;;;5065166;28;20040;-71
2021/04/25 03:07:38;;;;;;;15.65;8.55;;;5.40;69.60;;;;;;5062930;28;20178;-74
2021/04/25 03:10:05;;;;;;;16.85;7.63;;;5.40;69.70;;;;;;5066628;28;20112;-73
2021/04/25 03:12:31;;;;;;;17.83;8.43;;;5.40;69.80;;;;;;5063858;28;20079;-73
2021/04/25 03:14:56;;;;;;;15.55;8.05;;;5.50;69.80;;;;;;5061732;28;20533;-71
2021/04/25 03:17:22;;;;;;;15.60;8.63;;;5.40;69.90;;;;;;5064843;28;20105;-72
2021/04/25 03:19:48;;;;;;;14.77;8.57;;;5.40;69.90;;;;;;5064082;28;20036;-72
2021/04/25 03:22:13;;;;;;;18.25;8.48;;;5.40;70.10;;;;;;5062932;28;20036;-72
2021/04/25 03:24:39;;;;;;;14.88;7.97;;;5.40;70.10;;;;;;5066836;28;20117;-72
2021/04/25 03:27:05;;;;;;;17.90;8.82;;;5.30;70.30;;;;;;5062796;28;20052;-72
2021/04/25 03:29:31;;;;;;;19.17;8.85;;;5.30;70.50;;;;;;5060932;28;20403;-73
2021/04/25 03:31:56;;;;;;;18.45;8.02;;;5.30;70.50;;;;;;5067174;28;20024;-72
2021/04/25 03:34:22;;;;;;;14.88;7.18;;;5.30;70.70;;;;;;5061093;28;20048;-72
2021/04/25 03:36:48;;;;;;;14.93;7.22;;;5.30;70.60;;;;;;5063930;28;20064;-76
2021/04/25 03:39:14;;;;;;;18.60;8.00;;;5.30;70.30;;;;;;5065917;28;20040;-72
2021/04/25 03:41:40;;;;;;;14.45;7.85;;;5.30;70.30;;;;;;5063727;28;20056;-72
2021/04/25 03:44:06;;;;;;;18.17;9.18;;;5.30;70.40;;;;;;5044242;28;20064;-72
2021/04/25 03:46:31;;;;;;;16.33;8.25;;;5.30;70.60;;;;;;5047590;28;20155;-72
2021/04/25 03:48:57;;;;;;;17.60;8.10;;;5.30;70.60;;;;;;5057365;28;20047;-72
2021/04/25 03:51:24;;;;;;;18.38;8.48;;;5.20;70.50;;;;;;5062753;28;20395;-72
2021/04/25 03:53:49;;;;;;;17.55;7.80;;;5.20;70.60;;;;;;5063445;28;20512;-73
2021/04/25 03:56:15;;;;;;;16.75;8.32;;;5.20;70.80;;;;;;5060848;28;20050;-72
2021/04/25 03:58:41;;;;;;;16.48;7.85;;;5.10;71.00;;;;;;5060471;28;20472;-72
2021/04/25 04:01:07;;;;;;;17.20;8.45;;;5.20;70.90;;;;;;5062781;28;20047;-74
2021/04/25 04:03:32;;;;;;;16.73;7.88;;;5.10;70.90;;;;;;5065802;28;20039;-72
2021/04/25 04:05:58;;;;;;;16.45;8.35;;;5.10;71.00;;;;;;5071319;28;20029;-72
2021/04/25 04:08:24;;;;;;;19.38;8.48;;;5.10;71.00;;;;;;5074883;28;20059;-76
2021/04/25 04:10:49;;;;;;;16.48;8.07;;;5.10;71.10;;;;;;5074942;28;20567;-72
2021/04/25 04:13:15;;;;;;;15.52;8.25;;;5.10;71.30;;;;;;5063301;28;20032;-72
2021/04/25 04:15:41;;;;;;;16.75;8.25;;;5.00;71.30;;;;;;5065349;28;20403;-73
2021/04/25 04:18:07;;;;;;;16.58;8.60;;;5.00;71.40;;;;;;5058688;28;20032;-72
2021/04/25 04:20:33;;;;;;;20.35;9.68;;;5.00;71.30;;;;;;5047658;28;20506;-73
2021/04/25 04:22:58;;;;;;;18.50;8.85;;;4.90;71.60;;;;;;5062318;28;20075;-74
2021/04/25 04:25:24;;;;;;;14.48;8.15;;;4.90;71.70;;;;;;5063786;28;20064;-73
2021/04/25 04:27:49;;;;;;;16.27;8.95;;;4.90;71.60;;;;;;5065265;28;20040;-77
2021/04/25 04:30:15;;;;;;;18.02;8.63;;;4.90;71.70;;;;;;5062818;28;20410;-72
2021/04/25 04:32:41;;;;;;;16.98;8.95;;;4.90;71.90;;;;;;5064231;28;20029;-73
2021/04/25 04:35:07;;;;;;;17.90;8.27;;;4.80;71.90;;;;;;5054080;28;20049;-73
2021/04/25 04:37:33;;;;;;;15.52;8.68;;;4.80;71.90;;;;;;5066187;28;20476;-71
2021/04/25 04:39:58;;;;;;;15.02;8.57;;;4.80;71.70;;;;;;5062996;28;20109;-72
2021/04/25 04:42:24;;;;;;;19.38;8.48;;;4.90;71.60;;;;;;5063257;28;20036;-72
2021/04/25 04:44:50;;;;;;;18.35;9.40;;;4.90;71.60;;;;;;5065488;28;20395;-73
2021/04/25 04:47:16;;;;;;;20.63;9.43;;;4.90;71.60;;;;;;5066273;28;20025;-75
2021/04/25 04:49:41;;;;;;;17.52;9.85;;;4.90;71.50;;;;;;5064890;28;20036;-72
2021/04/25 04:52:07;;;;;;;18.38;10.80;;;4.90;71.50;;;;;;5061732;28;20051;-72
2021/04/25 04:54:33;;;;;;;19.02;10.38;;;4.90;71.60;;;;;;5063967;28;20434;-72
2021/04/25 04:56:59;;;;;;;16.92;9.75;;;4.80;71.70;;;;;;5068107;28;20086;-72
2021/04/25 04:59:24;;;;;;;17.45;8.88;;;4.80;71.70;;;;;;5064095;28;20491;-72
2021/04/25 05:01:50;;;;;;;15.95;9.15;;;4.80;71.70;;;;;;5066984;28;20028;-72
2021/04/25 05:04:16;;;;;;;14.98;8.60;;;4.90;71.60;;;;;;5063417;28;20044;-72
2021/04/25 05:06:41;;;;;;;17.05;8.48;;;5.00;71.40;;;;;;5068923;28;20036;-73
2021/04/25 05:09:07;;;;;;;15.65;8.63;;;4.90;71.40;;;;;;5068388;28;20466;-73
2021/04/25 05:11:33;;;;;;;35.08;10.80;;;5.00;71.50;;;;;;5064428;28;20029;-73
2021/04/25 05:13:58;;;;;;;17.65;9.70;;;5.10;71.10;;;;;;5067022;28;20044;-72
2021/04/25 05:16:24;;;;;;;16.55;8.48;;;5.10;71.10;;;;;;5066807;28;20033;-73
2021/04/25 05:18:50;;;;;;;16.15;8.57;;;5.10;70.70;;;;;;5063063;28;20028;-72
2021/04/25 05:21:15;;;;;;;18.00;9.25;;;5.10;70.60;;;;;;5064245;28;20374;-72
2021/04/25 05:23:41;;;;;;;16.73;8.00;;;5.10;70.60;;;;;;5067044;28;20028;-73
2021/04/25 05:26:07;;;;;;;17.50;8.43;;;5.20;70.60;;;;;;5067337;28;20043;-72
2021/04/25 05:28:33;;;;;;;17.33;10.65;;;5.20;70.30;;;;;;5068074;28;20051;-72
2021/04/25 05:31:00;;;;;;;16.75;8.38;;;5.30;70.30;;;;;;5067419;28;20460;-71
2021/04/25 05:33:26;;;;;;;18.38;9.50;;;5.40;69.90;;;;;;5061938;28;20029;-71
2021/04/25 05:35:52;;;;;;;17.08;8.30;;;5.60;69.90;;;;;;5059633;28;20029;-72
2021/04/25 05:38:17;;;;;;;16.23;8.52;;;5.70;69.20;;;;;;5062877;28;20098;-72
2021/04/25 05:40:43;;;;;;;17.10;8.52;;;5.70;69.10;;;;;;5065317;28;20033;-75
2021/04/25 05:43:09;;;;;;;15.75;8.52;;;5.80;68.90;;;;;;5066894;28;20102;-73
2021/04/25 05:45:34;;;;;;;16.40;8.65;;;5.80;68.80;;;;;;5065541;28;20070;-73
2021/04/25 05:48:01;;;;;;;15.88;8.38;;;5.90;68.70;;;;;;5065257;28;20479;-72
2021/04/25 05:50:29;;;;;;;18.52;9.40;;;5.90;69.00;;;;;;5062829;28;20072;-72
2021/04/25 05:52:55;;;;;;;17.75;8.80;;;5.90;69.20;;;;;;5063971;28;20091;-73
2021/04/25 05:55:21;;;;;;;15.75;7.72;;;6.00;69.00;;;;;;5045267;28;20033;-72
2021/04/25 05:57:47;;;;;;;15.00;7.65;;;6.00;68.70;;;;;;5048537;28;20025;-72
2021/04/25 06:00:17;;;;;;;14.02;7.82;;;6.10;68.30;;;;;;5044506;28;20037;-74
2021/04/25 06:02:43;;;;;;;15.20;7.80;;;6.10;68.50;;;;;;5053778;28;20387;-73
2021/04/25 06:05:09;;;;;;;16.75;8.43;;;6.20;68.00;;;;;;5065828;28;20052;-73
2021/04/25 06:07:35;;;;;;;17.15;9.05;;;6.30;67.60;;;;;;5066251;28;20095;-72
2021/04/25 06:10:00;;;;;;;16.75;7.68;;;6.50;67.40;;;;;;5063058;28;20473;-73
2021/04/25 06:12:26;;;;;;;16.52;8.02;;;6.60;66.70;;;;;;5063580;28;20036;-72
2021/04/25 06:14:51;;;;;;;19.08;9.00;;;6.60;66.70;;;;;;5066133;28;20084;-72
2021/04/25 06:17:17;;;;;;;16.38;8.18;;;6.60;67.10;;;;;;5064178;28;20131;-74
2021/04/25 06:19:43;;;;;;;15.10;8.20;;;6.80;66.50;;;;;;5065318;28;20055;-74
2021/04/25 06:22:10;;;;;;;16.50;7.70;;;6.80;66.00;;;;;;5066733;28;20078;-76
2021/04/25 06:24:37;;;;;;;15.63;8.15;;;7.10;65.50;;;;;;5065199;28;20067;-72
2021/04/25 06:27:03;;;;;;;17.13;8.18;;;7.30;64.50;;;;;;5063320;28;20073;-73
2021/04/25 06:29:29;;;;;;;15.32;8.57;;;7.40;64.20;;;;;;5059113;28;20041;-72
2021/04/25 06:31:56;;;;;;;14.20;7.93;;;7.30;64.30;;;;;;5057044;28;20388;-72
2021/04/25 06:34:21;;;;;;;15.05;8.10;;;7.20;63.80;;;;;;5061061;28;20044;-72
2021/04/25 06:36:47;;;;;;;18.08;8.27;;;7.30;63.30;;;;;;5057385;28;20530;-72
2021/04/25 06:39:13;;;;;;;16.05;8.05;;;7.30;63.40;;;;;;5065679;28;20456;-73
2021/04/25 06:41:38;;;;;;;14.75;7.90;;;7.40;63.70;;;;;;5062720;28;20044;-75
2021/04/25 06:44:04;;;;;;;14.63;8.90;;;7.50;63.70;;;;;;5057629;28;20049;-72
2021/04/25 06:46:30;;;;;;;14.45;8.07;;;7.50;63.70;;;;;;5063600;28;20028;-73
2021/04/25 06:48:57;;;;;;;18.45;8.90;;;7.40;64.00;;;;;;5059491;28;20036;-73
2021/04/25 06:51:22;;;;;;;15.10;8.60;;;7.50;63.40;;;;;;5060411;28;20430;-72
2021/04/25 06:53:49;;;;;;;15.20;8.95;;;7.30;63.90;;;;;;5062035;28;20054;-72
2021/04/25 06:56:15;;;;;;;15.32;8.75;;;7.30;64.20;;;;;;5063643;28;20040;-72
2021/04/25 06:58:40;;;;;;;16.20;8.77;;;7.40;63.80;;;;;;5063021;28;20029;-72
2021/04/25 07:01:07;;;;;;;17.48;9.10;;;7.60;63.70;;;;;;5060173;28;20110;-72
2021/04/25 07:03:33;;;;;;;15.63;8.18;;;7.60;63.00;;;;;;5059710;28;21088;-73
2021/04/25 07:05:59;;;;;;;17.50;9.43;;;7.50;63.30;;;;;;5053991;28;21257;-74
2021/04/25 07:08:25;;;;;;;14.55;8.77;;;7.60;63.30;;;;;;5059024;28;20104;-72
2021/04/25 07:10:54;;;;;;;14.48;8.68;;;7.50;63.40;;;;;;5056963;28;20045;-72
2021/04/25 07:13:21;;;;;;;15.85;8.10;;;7.50;63.80;;;;;;5056808;28;20693;-72
2021/04/25 07:15:47;;;;;;;14.77;8.02;;;7.60;63.40;;;;;;5050452;28;20036;-72
2021/04/25 07:18:13;;;;;;;15.75;8.05;;;7.90;62.90;;;;;;5063710;28;20036;-72
2021/04/25 07:20:39;;;;;;;17.13;8.68;;;8.20;62.10;;;;;;5058203;28;20087;-72
2021/04/25 07:23:05;;;;;;;15.20;7.75;;;8.30;61.40;;;;;;5063287;28;20495;-69
2021/04/25 07:25:31;;;;;;;15.02;8.23;;;8.40;61.40;;;;;;5057243;28;20051;-68
2021/04/25 07:27:57;;;;;;;15.07;8.50;;;8.10;61.30;;;;;;5055179;28;20041;-68
2021/04/25 07:30:23;;;;;;;14.00;8.35;;;7.90;62.10;;;;;;5060498;28;20044;-68
2021/04/25 07:32:50;;;;;;;15.68;8.25;;;8.10;62.50;;;;;;5056239;28;20101;-68
2021/04/25 07:35:17;;;;;;;13.63;8.05;;;8.40;60.90;;;;;;5053266;28;20038;-68
2021/04/25 07:37:43;;;;;;;15.43;8.15;;;8.60;59.90;;;;;;5056393;28;20391;-68
2021/04/25 07:40:11;;;;;;;13.95;8.20;;;8.50;60.40;;;;;;5054710;28;20503;-68
2021/04/25 07:42:38;;;;;;;16.38;7.88;;;8.40;60.80;;;;;;5054820;28;20124;-70
2021/04/25 07:45:07;;;;;;;17.52;8.18;;;8.30;59.80;;;;;;5034702;28;20052;-69
2021/04/25 07:47:33;;;;;;;22.88;10.15;;;8.40;60.80;;;;;;5045041;28;20653;-67
2021/04/25 07:49:58;;;;;;;17.33;9.82;;;8.40;59.70;;;;;;5054902;28;20048;-71
2021/04/25 07:52:24;;;;;;;16.10;9.70;;;8.50;59.10;;;;;;5045259;28;20045;-71
2021/04/25 07:54:49;;;;;;;17.02;10.40;;;8.50;58.80;;;;;;5032907;28;20033;-70
2021/04/25 07:57:15;;;;;;;14.65;9.77;;;8.20;59.40;;;;;;5045825;28;20487;-68
2021/04/25 07:59:41;;;;;;;15.52;9.68;;;8.10;60.30;;;;;;5051239;28;20044;-69
2021/04/25 08:02:07;;;;;;;16.35;9.63;;;8.10;60.20;;;;;;5048395;28;20033;-73
2021/04/25 08:04:33;;;;;;;16.00;8.98;;;8.30;59.70;;;;;;5048100;28;20049;-69
2021/04/25 08:06:58;;;;;;;16.08;8.98;;;8.40;59.90;;;;;;5050416;28;20092;-71
2021/04/25 08:09:24;;;;;;;14.82;9.82;;;8.40;59.90;;;;;;5048286;28;20051;-73
2021/04/25 08:11:50;;;;;;;17.85;9.30;;;8.30;59.70;;;;;;5045768;28;20687;-71
2021/04/25 08:14:15;;;;;;;17.52;9.30;;;8.30;59.90;;;;;;5036199;28;20972;-73
2021/04/25 08:16:41;;;;;;;16.27;8.65;;;8.40;59.70;;;;;;5028135;28;20071;-69
2021/04/25 08:19:08;;;;;;;14.32;8.60;;;8.40;59.20;;;;;;5027668;28;20036;-72
2021/04/25 08:21:34;;;;;;;15.25;8.98;;;7.90;60.40;;;;;;5050436;28;20043;-72
2021/04/25 08:24:00;;;;;;;14.82;9.30;;;8.00;60.40;;;;;;5048851;28;20298;-69
2021/04/25 08:26:26;;;;;;;14.10;8.23;;;8.20;59.50;;;;;;5049875;28;20063;-71
2021/04/25 08:28:52;;;;;;;15.20;7.47;;;8.60;59.60;;;;;;5046096;28;20527;-73
2021/04/25 08:31:18;;;;;;;14.35;7.43;;;8.60;58.20;;;;;;5038663;28;20040;-70
2021/04/25 08:33:43;;;;;;;13.20;6.80;;;8.90;57.30;;;;;;5037598;28;20132;-72
2021/04/25 08:36:09;;;;;;;12.10;6.68;;;8.80;58.20;;;;;;5044556;28;20036;-73
2021/04/25 08:38:34;;;;;;;13.88;7.20;;;9.10;57.70;;;;;;5047663;28;20064;-72
2021/04/25 08:41:03;;;;;;;16.52;8.10;;;9.10;56.90;;;;;;5034260;28;20476;-72
2021/04/25 08:43:30;;;;;;;14.32;7.40;;;9.30;56.30;;;;;;5031205;28;20031;-71
2021/04/25 08:45:58;;;;;;;13.32;6.65;;;9.00;57.00;;;;;;5043248;28;20048;-71
2021/04/25 08:48:28;;;;;;;14.82;7.32;;;9.20;56.90;;;;;;5029383;28;20048;-72
2021/04/25 08:50:53;;;;;;;12.18;6.70;;;9.40;56.50;;;;;;5055337;28;20523;-68
2021/04/25 08:53:20;;;;;;;11.05;6.90;;;9.70;56.50;;;;;;5048078;28;20032;-69
2021/04/25 08:55:46;;;;;;;13.00;7.50;;;9.70;55.40;;;;;;5044294;28;20029;-71
2021/04/25 08:58:12;;;;;;;14.18;6.95;;;9.60;55.20;;;;;;5049315;28;20613;-71
2021/04/25 09:00:38;;;;;;;13.45;7.93;;;10.10;55.30;;;;;;5036419;28;20072;-72
2021/04/25 09:03:03;;;;;;;11.73;7.13;;;10.00;54.40;;;;;;5033443;28;20072;-73
2021/04/25 09:05:29;;;;;;;12.63;7.47;;;9.80;54.80;;;;;;5028187;28;20063;-72
2021/04/25 09:07:57;;;;;;;14.63;8.07;;;9.30;55.90;;;;;;5031618;28;20037;-73
2021/04/25 09:10:31;;;;;;;18.98;8.50;;;9.10;56.50;;;;;;5024610;28;20050;-73
2021/04/25 09:12:57;;;;;;;14.85;8.20;;;9.10;56.30;;;;;;5023210;28;20037;-74
2021/04/25 09:15:25;;;;;;;15.02;9.27;;;9.40;56.20;;;;;;5031983;28;20029;-72
2021/04/25 09:18:03;;;;;;;15.98;8.38;;;9.70;55.40;;;;;;5047298;28;20052;-73
2021/04/25 09:20:50;;;;;;;14.95;8.68;;;9.80;55.60;;;;;;5048393;28;20033;-73
2021/04/25 09:23:22;;;;;;;14.50;8.82;;;9.70;54.60;;;;;;5049012;28;20071;-76
2021/04/25 09:26:14;;;;;;;15.35;8.77;;;10.40;55.70;;;;;;5043582;28;20693;-71
2021/04/25 09:28:41;;;;;;;14.88;8.30;;;11.30;52.10;;;;;;5024615;28;20067;-74
2021/04/25 09:31:16;;;;;;;13.82;7.88;;;11.60;50.10;;;;;;5041738;28;20036;-73
2021/04/25 09:33:51;;;;;;;12.70;7.95;;;11.00;51.40;;;;;;5040708;28;20031;-68
2021/04/25 09:36:20;;;;;;;13.82;9.75;;;11.30;51.10;;;;;;5041903;28;20186;-70
2021/04/25 09:38:46;;;;;;;17.30;12.25;;;11.20;50.40;;;;;;5049168;28;20461;-70
2021/04/25 09:41:28;;;;;;;17.10;12.52;;;11.30;50.40;;;;;;5039832;28;20025;-71
2021/04/25 09:43:54;;;;;;;20.38;12.95;;;11.70;49.90;;;;;;5045931;28;20050;-70
2021/04/25 09:46:20;;;;;;;18.77;12.23;;;11.20;50.30;;;;;;5028507;28;20988;-71
2021/04/25 09:48:46;;;;;;;16.27;9.65;;;10.80;52.20;;;;;;5044567;28;20032;-71
2021/04/25 09:51:22;;;;;;;22.38;16.08;;;11.40;51.00;;;;;;5046412;28;20748;-71
2021/04/25 09:53:53;;;;;;;20.45;15.77;;;11.80;50.30;;;;;;5048763;28;20033;-72
2021/04/25 09:56:34;;;;;;;20.67;14.70;;;10.70;51.10;;;;;;5050297;28;20115;-69
2021/04/25 09:59:02;;;;;;;15.50;11.40;;;9.70;54.80;;;;;;5046709;28;20065;-70
2021/04/25 10:01:33;;;;;;;16.85;10.68;;;9.80;54.50;;;;;;5048582;28;20029;-70
2021/04/25 10:04:00;;;;;;;17.40;11.07;;;9.90;54.90;;;;;;5050649;28;20591;-67
2021/04/25 10:06:46;;;;;;;18.73;11.35;;;10.10;54.90;;;;;;5049149;28;20399;-72
2021/04/25 10:09:16;;;;;;;17.80;10.10;;;10.60;54.10;;;;;;5045863;28;20135;-69
2021/04/25 10:11:42;;;;;;;18.55;12.07;;;11.10;51.70;;;;;;5028568;28;20131;-71
2021/04/25 10:14:08;;;;;;;16.65;10.68;;;10.70;52.60;;;;;;5051204;28;20036;-74
2021/04/25 10:16:34;;;;;;;17.90;12.60;;;11.10;52.20;;;;;;5049385;28;20051;-69
2021/04/25 10:19:01;;;;;;;19.23;14.07;;;11.10;51.10;;;;;;5051487;28;20547;-69
2021/04/25 10:21:26;;;;;;;20.48;14.18;;;11.30;50.40;;;;;;5048649;28;20037;-71
2021/04/25 10:23:53;;;;;;;19.63;14.13;;;11.20;51.90;;;;;;5051895;28;20179;-71
2021/04/25 10:26:22;;;;;;;17.52;12.60;;;11.10;51.50;;;;;;5047426;28;20063;-69
2021/04/25 10:28:58;;;;;;;16.55;12.82;;;11.20;51.10;;;;;;5049981;28;20050;-72
2021/04/25 10:31:30;;;;;;;14.15;10.57;;;11.70;51.30;;;;;;5047310;28;20484;-70
2021/04/25 10:33:59;;;;;;;15.13;9.73;;;11.90;49.50;;;;;;5036993;28;20042;-70
2021/04/25 10:36:48;;;;;;;15.95;9.95;;;11.50;50.60;;;;;;5028372;28;20037;-70
2021/04/25 10:39:32;;;;;;;17.75;9.95;;;11.10;52.60;;;;;;5030426;28;20137;-73
2021/04/25 10:42:17;;;;;;;18.05;12.38;;;11.10;52.50;;;;;;5042143;28;20075;-72
2021/04/25 10:47:24;;;;;;;16.92;10.00;;;11.90;49.80;;;;;;5034024;28;20515;-70
2021/04/25 10:49:49;;;;;;;16.15;10.45;;;11.90;49.70;;;;;;5039787;28;20044;-70
2021/04/25 10:52:27;;;;;;;21.05;13.70;;;12.60;49.90;;;;;;5050108;28;20036;-73
2021/04/25 10:55:11;;;;;;;14.02;9.07;;;12.40;48.60;;;;;;5049525;28;20511;-72
2021/04/25 10:57:56;;;;;;;17.98;10.70;;;11.30;50.40;;;;;;5027903;28;20859;-71
2021/04/25 11:00:31;;;;;;;21.85;14.07;;;11.90;50.70;;;;;;5028235;28;21257;-69
2021/04/25 11:02:58;;;;;;;17.73;11.90;;;12.00;50.50;;;;;;5034356;28;20048;-70
2021/04/25 11:05:40;;;;;;;16.73;11.80;;;11.60;50.40;;;;;;5043907;28;20036;-72
2021/04/25 11:08:18;;;;;;;17.75;10.73;;;11.30;49.90;;;;;;5029893;28;20041;-71
2021/04/25 11:10:47;;;;;;;12.80;8.98;;;11.70;50.40;;;;;;5027998;28;20250;-72
2021/04/25 11:13:39;;;;;;;16.63;10.60;;;11.60;49.20;;;;;;5029331;28;20045;-74
2021/04/25 11:16:17;;;;;;;16.65;9.63;;;11.60;51.10;;;;;;5031194;28;20041;-71
2021/04/25 11:18:51;;;;;;;13.90;8.88;;;11.70;49.30;;;;;;5026397;28;20041;-72
2021/04/25 11:21:26;;;;;;;14.73;7.60;;;11.50;49.50;;;;;;5037139;28;20056;-71
2021/04/25 11:23:53;;;;;;;15.57;7.50;;;11.60;50.40;;;;;;5042502;28;20029;-73
2021/04/25 11:26:40;;;;;;;13.60;7.18;;;11.70;48.50;;;;;;5045155;28;20362;-72
2021/04/25 11:29:07;;;;;;;14.93;8.20;;;12.30;47.20;;;;;;5035521;28;20542;-73
2021/04/25 11:31:45;;;;;;;16.75;8.38;;;11.80;47.30;;;;;;5043397;28;20055;-72
2021/04/25 11:37:04;;;;;;;12.75;7.35;;;11.80;48.20;;;;;;5034812;28;20883;-74
2021/04/25 11:39:32;;;;;;;15.95;7.30;;;11.90;47.50;;;;;;5034145;28;20033;-70
2021/04/25 11:41:58;;;;;;;13.77;7.65;;;12.10;48.50;;;;;;5033421;28;20044;-74
2021/04/25 11:44:38;;;;;;;12.70;7.07;;;11.90;48.40;;;;;;5029772;28;20033;-73
2021/04/25 11:47:11;;;;;;;14.20;7.43;;;12.10;47.50;;;;;;5033390;28;20032;-71
2021/04/25 11:49:45;;;;;;;15.18;6.97;;;12.30;48.00;;;;;;5049411;28;20036;-72
2021/04/25 11:52:20;;;;;;;13.40;6.72;;;12.30;47.60;;;;;;5050935;28;20090;-69
2021/04/25 11:54:48;;;;;;;12.23;7.30;;;12.40;48.60;;;;;;5049285;28;20174;-72
2021/04/25 11:57:22;;;;;;;14.13;6.78;;;12.40;47.40;;;;;;5040534;28;20240;-72
2021/04/25 11:59:55;;;;;;;13.18;7.13;;;12.40;47.30;;;;;;5043127;28;20097;-70
2021/04/25 12:02:22;;;;;;;11.98;6.60;;;12.00;47.80;;;;;;5049796;28;20044;-72
2021/04/25 12:05:09;;;;;;;11.13;6.30;;;12.10;48.80;;;;;;5053434;28;20032;-70
2021/04/25 12:07:40;;;;;;;15.07;7.05;;;12.20;47.90;;;;;;5053645;28;20036;-72
2021/04/25 12:10:09;;;;;;;12.43;6.82;;;12.10;47.50;;;;;;5053499;28;20498;-69
2021/04/25 12:12:35;;;;;;;12.40;6.35;;;12.10;47.90;;;;;;5051308;28;20132;-69
2021/04/25 12:15:07;;;;;;;16.30;7.20;;;12.40;47.80;;;;;;5043596;28;20037;-71
2021/04/25 12:17:33;;;;;;;14.35;7.57;;;12.40;47.70;;;;;;5030563;28;20040;-72
2021/04/25 12:20:00;;;;;;;17.25;7.95;;;12.40;47.50;;;;;;5042533;28;20472;-70
2021/04/25 12:22:26;;;;;;;11.98;6.53;;;12.40;47.10;;;;;;5035317;28;20032;-71
2021/04/25 12:24:56;;;;;;;14.15;6.47;;;12.30;46.90;;;;;;5053998;28;20044;-68
2021/04/25 12:27:22;;;;;;;14.55;6.85;;;12.50;48.30;;;;;;5038603;28;20044;-72
2021/04/25 12:29:49;;;;;;;13.45;6.82;;;12.70;47.80;;;;;;5039152;28;20228;-71
2021/04/25 12:32:21;;;;;;;12.45;6.82;;;12.70;46.90;;;;;;5035316;28;20029;-70
2021/04/25 12:35:04;;;;;;;11.82;6.28;;;12.70;46.50;;;;;;5055358;28;20091;-70
2021/04/25 12:37:40;;;;;;;13.27;6.55;;;12.60;47.20;;;;;;5051542;28;20204;-71
2021/04/25 12:40:35;;;;;;;12.95;6.38;;;12.80;46.00;;;;;;5051632;28;20098;-71
2021/04/25 12:43:16;;;;;;;14.10;7.05;;;12.70;45.60;;;;;;5049444;28;20519;-69
2021/04/25 12:45:43;;;;;;;15.75;7.20;;;12.70;46.80;;;;;;5050354;28;20048;-72
2021/04/25 12:48:25;;;;;;;14.05;6.63;;;12.70;47.00;;;;;;5051244;28;20077;-72
2021/04/25 12:50:59;;;;;;;13.90;6.90;;;12.70;46.80;;;;;;5052697;28;20400;-69
2021/04/25 12:53:25;;;;;;;15.73;6.93;;;12.50;47.00;;;;;;5048837;28;20122;-70